sensor_id;sensor_type;location;lat;lon;timestamp;P1;durP1;ratioP1;P2;durP2;ratioP2
76761;SDS011;65705;51.032;13.790;2024-01-30T00:02:07;31.20;;;11.45;;
76761;SDS011;65705;51.032;13.790;2024-01-30T00:04:33;25.20;;;10.90;;
76761;SDS011;65705;51.032;13.790;2024-01-30T00:06:59;25.95;;;12.55;;
76761;SDS011;65705;51.032;13.790;2024-01-30T00:09:24;25.95;;;11.48;;
76761;SDS011;65705;51.032;13.790;2024-01-30T00:11:50;22.38;;;10.90;;
76761;SDS011;65705;51.032;13.790;2024-01-30T00:14:16;24.48;;;10.95;;
76761;SDS011;65705;51.032;13.790;2024-01-30T00:16:42;28.67;;;11.95;;
76761;SDS011;65705;51.032;13.790;2024-01-30T00:19:07;24.45;;;11.13;;
76761;SDS011;65705;51.032;13.790;2024-01-30T00:21:33;27.13;;;12.38;;
76761;SDS011;65705;51.032;13.790;2024-01-30T00:23:59;25.88;;;11.75;;
76761;SDS011;65705;51.032;13.790;2024-01-30T00:26:25;28.65;;;11.20;;
76761;SDS011;65705;51.032;13.790;2024-01-30T00:28:51;27.95;;;11.52;;
76761;SDS011;65705;51.032;13.790;2024-01-30T00:31:16;23.30;;;11.07;;
76761;SDS011;65705;51.032;13.790;2024-01-30T00:33:42;27.55;;;11.52;;
76761;SDS011;65705;51.032;13.790;2024-01-30T00:36:09;27.73;;;12.43;;
76761;SDS011;65705;51.032;13.790;2024-01-30T00:38:35;26.95;;;11.10;;
76761;SDS011;65705;51.032;13.790;2024-01-30T00:41:01;23.83;;;11.48;;
76761;SDS011;65705;51.032;13.790;2024-01-30T00:43:30;23.25;;;10.55;;
76761;SDS011;65705;51.032;13.790;2024-01-30T00:45:56;28.35;;;11.52;;
76761;SDS011;65705;51.032;13.790;2024-01-30T00:48:23;22.13;;;10.20;;
76761;SDS011;65705;51.032;13.790;2024-01-30T00:50:49;27.55;;;11.65;;
76761;SDS011;65705;51.032;13.790;2024-01-30T00:53:14;22.83;;;11.02;;
76761;SDS011;65705;51.032;13.790;2024-01-30T00:55:40;25.83;;;11.05;;
76761;SDS011;65705;51.032;13.790;2024-01-30T00:58:06;24.92;;;10.05;;
76761;SDS011;65705;51.032;13.790;2024-01-30T01:00:32;24.50;;;11.45;;
76761;SDS011;65705;51.032;13.790;2024-01-30T01:02:58;23.55;;;10.40;;
76761;SDS011;65705;51.032;13.790;2024-01-30T01:05:24;26.45;;;10.73;;
76761;SDS011;65705;51.032;13.790;2024-01-30T01:07:50;24.00;;;10.90;;
76761;SDS011;65705;51.032;13.790;2024-01-30T01:10:16;24.75;;;9.93;;
76761;SDS011;65705;51.032;13.790;2024-01-30T01:12:43;30.75;;;11.10;;
76761;SDS011;65705;51.032;13.790;2024-01-30T01:15:10;24.15;;;11.38;;
76761;SDS011;65705;51.032;13.790;2024-01-30T01:17:39;25.05;;;10.38;;
76761;SDS011;65705;51.032;13.790;2024-01-30T01:20:05;25.55;;;11.13;;
76761;SDS011;65705;51.032;13.790;2024-01-30T01:22:32;26.38;;;10.05;;
76761;SDS011;65705;51.032;13.790;2024-01-30T01:24:58;26.77;;;10.45;;
76761;SDS011;65705;51.032;13.790;2024-01-30T01:27:24;26.60;;;9.85;;
76761;SDS011;65705;51.032;13.790;2024-01-30T01:29:50;26.67;;;11.32;;
76761;SDS011;65705;51.032;13.790;2024-01-30T01:32:17;24.20;;;10.40;;
76761;SDS011;65705;51.032;13.790;2024-01-30T01:34:43;22.23;;;9.25;;
76761;SDS011;65705;51.032;13.790;2024-01-30T01:37:09;20.27;;;10.35;;
76761;SDS011;65705;51.032;13.790;2024-01-30T01:39:35;24.85;;;10.15;;
76761;SDS011;65705;51.032;13.790;2024-01-30T01:42:00;23.40;;;9.93;;
76761;SDS011;65705;51.032;13.790;2024-01-30T01:44:26;24.85;;;10.43;;
76761;SDS011;65705;51.032;13.790;2024-01-30T01:46:54;25.85;;;10.05;;
76761;SDS011;65705;51.032;13.790;2024-01-30T01:49:20;22.42;;;9.68;;
76761;SDS011;65705;51.032;13.790;2024-01-30T01:51:48;25.63;;;10.50;;
76761;SDS011;65705;51.032;13.790;2024-01-30T01:54:15;21.55;;;9.25;;
76761;SDS011;65705;51.032;13.790;2024-01-30T01:56:42;25.58;;;10.70;;
76761;SDS011;65705;51.032;13.790;2024-01-30T01:59:08;28.40;;;10.27;;
76761;SDS011;65705;51.032;13.790;2024-01-30T02:01:37;22.60;;;10.80;;
76761;SDS011;65705;51.032;13.790;2024-01-30T02:04:04;21.20;;;9.98;;
76761;SDS011;65705;51.032;13.790;2024-01-30T02:06:30;25.35;;;10.98;;
76761;SDS011;65705;51.032;13.790;2024-01-30T02:08:57;26.50;;;10.52;;
76761;SDS011;65705;51.032;13.790;2024-01-30T02:11:23;25.48;;;10.43;;
76761;SDS011;65705;51.032;13.790;2024-01-30T02:13:49;26.25;;;11.57;;
76761;SDS011;65705;51.032;13.790;2024-01-30T02:16:15;21.58;;;10.23;;
76761;SDS011;65705;51.032;13.790;2024-01-30T02:18:44;25.40;;;10.13;;
76761;SDS011;65705;51.032;13.790;2024-01-30T02:21:17;22.45;;;9.45;;
76761;SDS011;65705;51.032;13.790;2024-01-30T02:23:44;24.98;;;11.10;;
76761;SDS011;65705;51.032;13.790;2024-01-30T02:26:12;24.55;;;9.27;;
76761;SDS011;65705;51.032;13.790;2024-01-30T02:28:38;25.65;;;10.10;;
76761;SDS011;65705;51.032;13.790;2024-01-30T02:31:04;27.15;;;10.27;;
76761;SDS011;65705;51.032;13.790;2024-01-30T02:33:30;24.75;;;10.95;;
76761;SDS011;65705;51.032;13.790;2024-01-30T02:35:56;24.88;;;10.30;;
76761;SDS011;65705;51.032;13.790;2024-01-30T02:38:22;27.08;;;10.23;;
76761;SDS011;65705;51.032;13.790;2024-01-30T02:40:48;20.63;;;9.90;;
76761;SDS011;65705;51.032;13.790;2024-01-30T02:43:15;23.70;;;10.98;;
76761;SDS011;65705;51.032;13.790;2024-01-30T02:45:42;22.70;;;9.88;;
76761;SDS011;65705;51.032;13.790;2024-01-30T02:48:08;26.25;;;11.35;;
76761;SDS011;65705;51.032;13.790;2024-01-30T02:50:33;24.23;;;10.27;;
76761;SDS011;65705;51.032;13.790;2024-01-30T02:52:59;23.63;;;9.85;;
76761;SDS011;65705;51.032;13.790;2024-01-30T02:55:25;24.98;;;10.75;;
76761;SDS011;65705;51.032;13.790;2024-01-30T02:57:51;21.60;;;9.82;;
76761;SDS011;65705;51.032;13.790;2024-01-30T03:00:16;26.10;;;11.07;;
76761;SDS011;65705;51.032;13.790;2024-01-30T03:02:42;22.75;;;10.63;;
76761;SDS011;65705;51.032;13.790;2024-01-30T03:05:08;24.55;;;9.75;;
76761;SDS011;65705;51.032;13.790;2024-01-30T03:07:34;24.45;;;11.70;;
76761;SDS011;65705;51.032;13.790;2024-01-30T03:09:59;25.65;;;10.55;;
76761;SDS011;65705;51.032;13.790;2024-01-30T03:12:26;25.13;;;10.73;;
76761;SDS011;65705;51.032;13.790;2024-01-30T03:14:51;25.88;;;11.40;;
76761;SDS011;65705;51.032;13.790;2024-01-30T03:17:17;24.08;;;9.98;;
76761;SDS011;65705;51.032;13.790;2024-01-30T03:19:43;21.02;;;9.90;;
76761;SDS011;65705;51.032;13.790;2024-01-30T03:22:09;30.58;;;11.38;;
76761;SDS011;65705;51.032;13.790;2024-01-30T03:24:34;23.70;;;10.80;;
76761;SDS011;65705;51.032;13.790;2024-01-30T03:27:00;24.80;;;11.13;;
76761;SDS011;65705;51.032;13.790;2024-01-30T03:29:26;23.77;;;11.27;;
76761;SDS011;65705;51.032;13.790;2024-01-30T03:31:52;26.45;;;10.93;;
76761;SDS011;65705;51.032;13.790;2024-01-30T03:34:18;27.88;;;11.63;;
76761;SDS011;65705;51.032;13.790;2024-01-30T03:36:44;22.15;;;9.57;;
76761;SDS011;65705;51.032;13.790;2024-01-30T03:39:09;25.35;;;10.25;;
76761;SDS011;65705;51.032;13.790;2024-01-30T03:41:35;24.92;;;11.05;;
76761;SDS011;65705;51.032;13.790;2024-01-30T03:44:01;29.90;;;10.93;;
76761;SDS011;65705;51.032;13.790;2024-01-30T03:46:27;25.65;;;10.85;;
76761;SDS011;65705;51.032;13.790;2024-01-30T03:48:53;26.70;;;10.57;;
76761;SDS011;65705;51.032;13.790;2024-01-30T03:51:19;25.98;;;11.90;;
76761;SDS011;65705;51.032;13.790;2024-01-30T03:53:44;29.30;;;10.70;;
76761;SDS011;65705;51.032;13.790;2024-01-30T03:56:11;25.40;;;10.93;;
76761;SDS011;65705;51.032;13.790;2024-01-30T03:58:40;26.58;;;10.77;;
76761;SDS011;65705;51.032;13.790;2024-01-30T04:01:07;25.75;;;10.30;;
76761;SDS011;65705;51.032;13.790;2024-01-30T04:03:33;23.02;;;10.35;;
76761;SDS011;65705;51.032;13.790;2024-01-30T04:05:59;31.20;;;12.10;;
76761;SDS011;65705;51.032;13.790;2024-01-30T04:08:24;26.58;;;10.85;;
76761;SDS011;65705;51.032;13.790;2024-01-30T04:10:50;26.35;;;11.65;;
76761;SDS011;65705;51.032;13.790;2024-01-30T04:13:16;24.65;;;10.32;;
76761;SDS011;65705;51.032;13.790;2024-01-30T04:15:41;23.20;;;10.80;;
76761;SDS011;65705;51.032;13.790;2024-01-30T04:18:07;28.83;;;11.18;;
76761;SDS011;65705;51.032;13.790;2024-01-30T04:20:33;28.30;;;10.70;;
76761;SDS011;65705;51.032;13.790;2024-01-30T04:22:59;29.58;;;12.05;;
76761;SDS011;65705;51.032;13.790;2024-01-30T04:25:25;26.20;;;12.32;;
76761;SDS011;65705;51.032;13.790;2024-01-30T04:27:50;29.70;;;11.05;;
76761;SDS011;65705;51.032;13.790;2024-01-30T04:30:16;26.80;;;10.68;;
76761;SDS011;65705;51.032;13.790;2024-01-30T04:32:42;24.48;;;11.15;;
76761;SDS011;65705;51.032;13.790;2024-01-30T04:35:08;24.73;;;11.38;;
76761;SDS011;65705;51.032;13.790;2024-01-30T04:37:34;22.88;;;10.75;;
76761;SDS011;65705;51.032;13.790;2024-01-30T04:40:00;25.58;;;11.60;;
76761;SDS011;65705;51.032;13.790;2024-01-30T04:42:25;23.83;;;10.30;;
76761;SDS011;65705;51.032;13.790;2024-01-30T04:44:51;27.45;;;10.60;;
76761;SDS011;65705;51.032;13.790;2024-01-30T04:47:17;26.17;;;11.20;;
76761;SDS011;65705;51.032;13.790;2024-01-30T04:49:43;28.55;;;11.45;;
76761;SDS011;65705;51.032;13.790;2024-01-30T04:52:08;26.90;;;10.52;;
76761;SDS011;65705;51.032;13.790;2024-01-30T04:54:34;25.10;;;10.70;;
76761;SDS011;65705;51.032;13.790;2024-01-30T04:57:03;27.48;;;10.38;;
76761;SDS011;65705;51.032;13.790;2024-01-30T04:59:33;22.88;;;9.88;;
76761;SDS011;65705;51.032;13.790;2024-01-30T05:01:59;26.13;;;10.50;;
76761;SDS011;65705;51.032;13.790;2024-01-30T05:04:25;27.33;;;11.07;;
76761;SDS011;65705;51.032;13.790;2024-01-30T05:06:50;28.70;;;11.95;;
76761;SDS011;65705;51.032;13.790;2024-01-30T05:09:16;23.35;;;10.50;;
76761;SDS011;65705;51.032;13.790;2024-01-30T05:11:42;27.02;;;10.68;;
76761;SDS011;65705;51.032;13.790;2024-01-30T05:14:07;24.23;;;10.48;;
76761;SDS011;65705;51.032;13.790;2024-01-30T05:16:37;26.70;;;10.05;;
76761;SDS011;65705;51.032;13.790;2024-01-30T05:19:02;23.55;;;10.10;;
76761;SDS011;65705;51.032;13.790;2024-01-30T05:21:28;25.08;;;11.57;;
76761;SDS011;65705;51.032;13.790;2024-01-30T05:23:54;26.27;;;10.70;;
76761;SDS011;65705;51.032;13.790;2024-01-30T05:26:19;24.67;;;11.63;;
76761;SDS011;65705;51.032;13.790;2024-01-30T05:28:45;26.10;;;10.85;;
76761;SDS011;65705;51.032;13.790;2024-01-30T05:31:11;24.77;;;10.70;;
76761;SDS011;65705;51.032;13.790;2024-01-30T05:33:36;26.85;;;10.77;;
76761;SDS011;65705;51.032;13.790;2024-01-30T05:36:02;26.83;;;10.90;;
76761;SDS011;65705;51.032;13.790;2024-01-30T05:38:28;25.10;;;10.95;;
76761;SDS011;65705;51.032;13.790;2024-01-30T05:40:55;26.13;;;10.57;;
76761;SDS011;65705;51.032;13.790;2024-01-30T05:43:23;24.08;;;9.45;;
76761;SDS011;65705;51.032;13.790;2024-01-30T05:45:49;25.75;;;10.95;;
76761;SDS011;65705;51.032;13.790;2024-01-30T05:48:15;23.35;;;10.52;;
76761;SDS011;65705;51.032;13.790;2024-01-30T05:50:40;25.92;;;11.65;;
76761;SDS011;65705;51.032;13.790;2024-01-30T05:53:06;22.35;;;9.90;;
76761;SDS011;65705;51.032;13.790;2024-01-30T05:55:32;28.38;;;10.75;;
76761;SDS011;65705;51.032;13.790;2024-01-30T05:57:57;27.33;;;10.63;;
76761;SDS011;65705;51.032;13.790;2024-01-30T06:00:23;25.02;;;10.73;;
76761;SDS011;65705;51.032;13.790;2024-01-30T06:02:49;25.40;;;11.05;;
76761;SDS011;65705;51.032;13.790;2024-01-30T06:05:14;24.98;;;10.95;;
76761;SDS011;65705;51.032;13.790;2024-01-30T06:07:40;25.77;;;10.18;;
76761;SDS011;65705;51.032;13.790;2024-01-30T06:10:06;27.27;;;10.82;;
76761;SDS011;65705;51.032;13.790;2024-01-30T06:12:34;26.48;;;10.07;;
76761;SDS011;65705;51.032;13.790;2024-01-30T06:15:00;26.27;;;10.52;;
76761;SDS011;65705;51.032;13.790;2024-01-30T06:17:27;27.83;;;10.20;;
76761;SDS011;65705;51.032;13.790;2024-01-30T06:19:53;25.38;;;10.77;;
76761;SDS011;65705;51.032;13.790;2024-01-30T06:22:19;29.98;;;11.35;;
76761;SDS011;65705;51.032;13.790;2024-01-30T06:24:45;26.60;;;11.00;;
76761;SDS011;65705;51.032;13.790;2024-01-30T06:27:13;26.00;;;11.10;;
76761;SDS011;65705;51.032;13.790;2024-01-30T06:29:39;23.25;;;10.13;;
76761;SDS011;65705;51.032;13.790;2024-01-30T06:32:05;23.90;;;10.63;;
76761;SDS011;65705;51.032;13.790;2024-01-30T06:34:31;25.92;;;10.70;;
76761;SDS011;65705;51.032;13.790;2024-01-30T06:36:57;26.60;;;11.90;;
76761;SDS011;65705;51.032;13.790;2024-01-30T06:39:23;29.42;;;12.15;;
76761;SDS011;65705;51.032;13.790;2024-01-30T06:41:49;26.85;;;12.00;;
76761;SDS011;65705;51.032;13.790;2024-01-30T06:44:14;27.00;;;10.43;;
76761;SDS011;65705;51.032;13.790;2024-01-30T06:46:40;22.00;;;10.25;;
76761;SDS011;65705;51.032;13.790;2024-01-30T06:49:06;24.20;;;10.63;;
76761;SDS011;65705;51.032;13.790;2024-01-30T06:51:32;26.33;;;11.68;;
76761;SDS011;65705;51.032;13.790;2024-01-30T06:53:57;23.98;;;11.35;;
76761;SDS011;65705;51.032;13.790;2024-01-30T06:56:23;29.98;;;11.30;;
76761;SDS011;65705;51.032;13.790;2024-01-30T06:58:49;25.38;;;11.15;;
76761;SDS011;65705;51.032;13.790;2024-01-30T07:01:15;24.75;;;11.02;;
76761;SDS011;65705;51.032;13.790;2024-01-30T07:03:41;24.10;;;10.43;;
76761;SDS011;65705;51.032;13.790;2024-01-30T07:06:10;25.85;;;11.10;;
76761;SDS011;65705;51.032;13.790;2024-01-30T07:08:36;23.50;;;10.38;;
76761;SDS011;65705;51.032;13.790;2024-01-30T07:11:04;23.77;;;10.68;;
76761;SDS011;65705;51.032;13.790;2024-01-30T07:13:31;24.80;;;10.07;;
76761;SDS011;65705;51.032;13.790;2024-01-30T07:15:57;29.67;;;11.40;;
76761;SDS011;65705;51.032;13.790;2024-01-30T07:18:23;25.20;;;11.52;;
76761;SDS011;65705;51.032;13.790;2024-01-30T07:20:49;21.63;;;10.32;;
76761;SDS011;65705;51.032;13.790;2024-01-30T07:23:15;25.40;;;11.43;;
76761;SDS011;65705;51.032;13.790;2024-01-30T07:25:43;25.25;;;11.13;;
76761;SDS011;65705;51.032;13.790;2024-01-30T07:28:10;22.48;;;11.35;;
76761;SDS011;65705;51.032;13.790;2024-01-30T07:30:36;26.42;;;10.75;;
76761;SDS011;65705;51.032;13.790;2024-01-30T07:33:02;28.02;;;11.98;;
76761;SDS011;65705;51.032;13.790;2024-01-30T07:35:28;27.90;;;11.43;;
76761;SDS011;65705;51.032;13.790;2024-01-30T07:37:53;27.52;;;11.38;;
76761;SDS011;65705;51.032;13.790;2024-01-30T07:40:19;24.85;;;11.30;;
76761;SDS011;65705;51.032;13.790;2024-01-30T07:42:45;29.38;;;11.40;;
76761;SDS011;65705;51.032;13.790;2024-01-30T07:45:11;27.63;;;10.73;;
76761;SDS011;65705;51.032;13.790;2024-01-30T07:47:36;26.77;;;10.50;;
76761;SDS011;65705;51.032;13.790;2024-01-30T07:50:02;25.70;;;10.50;;
76761;SDS011;65705;51.032;13.790;2024-01-30T07:52:28;22.73;;;10.98;;
76761;SDS011;65705;51.032;13.790;2024-01-30T07:54:54;24.80;;;11.20;;
76761;SDS011;65705;51.032;13.790;2024-01-30T07:57:20;21.70;;;10.98;;
76761;SDS011;65705;51.032;13.790;2024-01-30T07:59:46;21.27;;;9.93;;
76761;SDS011;65705;51.032;13.790;2024-01-30T08:02:12;24.38;;;9.50;;
76761;SDS011;65705;51.032;13.790;2024-01-30T08:04:38;26.40;;;10.60;;
76761;SDS011;65705;51.032;13.790;2024-01-30T08:07:04;22.20;;;9.55;;
76761;SDS011;65705;51.032;13.790;2024-01-30T08:09:30;23.58;;;9.57;;
76761;SDS011;65705;51.032;13.790;2024-01-30T08:11:56;24.25;;;10.75;;
76761;SDS011;65705;51.032;13.790;2024-01-30T08:14:21;22.27;;;9.80;;
76761;SDS011;65705;51.032;13.790;2024-01-30T08:16:47;20.50;;;10.23;;
76761;SDS011;65705;51.032;13.790;2024-01-30T08:19:14;25.33;;;10.60;;
76761;SDS011;65705;51.032;13.790;2024-01-30T08:21:40;27.27;;;10.75;;
76761;SDS011;65705;51.032;13.790;2024-01-30T08:24:06;22.40;;;10.13;;
76761;SDS011;65705;51.032;13.790;2024-01-30T08:26:32;19.30;;;9.23;;
76761;SDS011;65705;51.032;13.790;2024-01-30T08:28:59;21.88;;;9.70;;
76761;SDS011;65705;51.032;13.790;2024-01-30T08:31:25;28.40;;;10.70;;
76761;SDS011;65705;51.032;13.790;2024-01-30T08:33:51;21.88;;;8.75;;
76761;SDS011;65705;51.032;13.790;2024-01-30T08:36:16;24.05;;;10.30;;
76761;SDS011;65705;51.032;13.790;2024-01-30T08:38:43;24.60;;;10.15;;
76761;SDS011;65705;51.032;13.790;2024-01-30T08:41:09;22.10;;;9.55;;
76761;SDS011;65705;51.032;13.790;2024-01-30T08:43:35;20.17;;;9.98;;
76761;SDS011;65705;51.032;13.790;2024-01-30T08:46:01;23.10;;;10.13;;
76761;SDS011;65705;51.032;13.790;2024-01-30T08:48:27;18.20;;;8.23;;
76761;SDS011;65705;51.032;13.790;2024-01-30T08:50:53;19.45;;;8.93;;
76761;SDS011;65705;51.032;13.790;2024-01-30T08:53:19;29.73;;;11.95;;
76761;SDS011;65705;51.032;13.790;2024-01-30T08:55:45;21.23;;;10.00;;
76761;SDS011;65705;51.032;13.790;2024-01-30T08:58:10;24.92;;;10.77;;
76761;SDS011;65705;51.032;13.790;2024-01-30T09:00:36;21.13;;;9.55;;
76761;SDS011;65705;51.032;13.790;2024-01-30T09:03:05;20.30;;;9.52;;
76761;SDS011;65705;51.032;13.790;2024-01-30T09:05:30;25.17;;;10.07;;
76761;SDS011;65705;51.032;13.790;2024-01-30T09:07:56;23.08;;;9.52;;
76761;SDS011;65705;51.032;13.790;2024-01-30T09:10:22;19.55;;;9.85;;
76761;SDS011;65705;51.032;13.790;2024-01-30T09:12:48;21.70;;;9.90;;
76761;SDS011;65705;51.032;13.790;2024-01-30T09:15:14;22.15;;;8.75;;
76761;SDS011;65705;51.032;13.790;2024-01-30T09:17:40;22.52;;;9.77;;
76761;SDS011;65705;51.032;13.790;2024-01-30T09:20:06;22.08;;;9.30;;
76761;SDS011;65705;51.032;13.790;2024-01-30T09:22:32;21.77;;;9.25;;
76761;SDS011;65705;51.032;13.790;2024-01-30T09:24:57;21.63;;;9.30;;
76761;SDS011;65705;51.032;13.790;2024-01-30T09:27:24;22.58;;;9.82;;
76761;SDS011;65705;51.032;13.790;2024-01-30T09:29:49;25.17;;;9.98;;
76761;SDS011;65705;51.032;13.790;2024-01-30T09:32:15;21.40;;;9.45;;
76761;SDS011;65705;51.032;13.790;2024-01-30T09:34:41;20.25;;;10.10;;
76761;SDS011;65705;51.032;13.790;2024-01-30T09:37:07;26.63;;;9.65;;
76761;SDS011;65705;51.032;13.790;2024-01-30T09:39:33;24.27;;;9.60;;
76761;SDS011;65705;51.032;13.790;2024-01-30T09:42:06;23.80;;;9.95;;
76761;SDS011;65705;51.032;13.790;2024-01-30T09:44:37;25.55;;;10.00;;
76761;SDS011;65705;51.032;13.790;2024-01-30T09:47:03;22.73;;;9.95;;
76761;SDS011;65705;51.032;13.790;2024-01-30T09:49:34;20.98;;;9.20;;
76761;SDS011;65705;51.032;13.790;2024-01-30T09:52:03;22.42;;;9.00;;
76761;SDS011;65705;51.032;13.790;2024-01-30T09:54:31;25.00;;;8.95;;
76761;SDS011;65705;51.032;13.790;2024-01-30T09:56:57;21.75;;;9.30;;
76761;SDS011;65705;51.032;13.790;2024-01-30T09:59:23;28.17;;;11.10;;
76761;SDS011;65705;51.032;13.790;2024-01-30T10:01:50;23.08;;;9.90;;
76761;SDS011;65705;51.032;13.790;2024-01-30T10:04:16;21.13;;;8.80;;
76761;SDS011;65705;51.032;13.790;2024-01-30T10:06:42;20.33;;;9.23;;
76761;SDS011;65705;51.032;13.790;2024-01-30T10:09:08;22.33;;;9.05;;
76761;SDS011;65705;51.032;13.790;2024-01-30T10:11:35;19.23;;;9.30;;
76761;SDS011;65705;51.032;13.790;2024-01-30T10:14:01;22.83;;;9.63;;
76761;SDS011;65705;51.032;13.790;2024-01-30T10:16:27;21.30;;;9.60;;
76761;SDS011;65705;51.032;13.790;2024-01-30T10:18:53;24.52;;;8.80;;
76761;SDS011;65705;51.032;13.790;2024-01-30T10:21:19;20.50;;;8.77;;
76761;SDS011;65705;51.032;13.790;2024-01-30T10:23:45;19.70;;;9.35;;
76761;SDS011;65705;51.032;13.790;2024-01-30T10:26:11;19.65;;;8.13;;
76761;SDS011;65705;51.032;13.790;2024-01-30T10:28:36;18.58;;;8.20;;
76761;SDS011;65705;51.032;13.790;2024-01-30T10:31:02;18.58;;;8.13;;
76761;SDS011;65705;51.032;13.790;2024-01-30T10:33:31;17.95;;;8.50;;
76761;SDS011;65705;51.032;13.790;2024-01-30T10:36:01;18.52;;;7.53;;
76761;SDS011;65705;51.032;13.790;2024-01-30T10:38:28;23.52;;;8.02;;
76761;SDS011;65705;51.032;13.790;2024-01-30T10:40:58;19.35;;;8.60;;
76761;SDS011;65705;51.032;13.790;2024-01-30T10:43:32;19.27;;;8.18;;
76761;SDS011;65705;51.032;13.790;2024-01-30T10:46:02;18.00;;;8.27;;
76761;SDS011;65705;51.032;13.790;2024-01-30T10:48:39;17.88;;;7.93;;
76761;SDS011;65705;51.032;13.790;2024-01-30T10:51:09;19.52;;;8.35;;
76761;SDS011;65705;51.032;13.790;2024-01-30T10:53:36;22.25;;;7.88;;
76761;SDS011;65705;51.032;13.790;2024-01-30T10:56:05;17.95;;;8.00;;
76761;SDS011;65705;51.032;13.790;2024-01-30T10:58:31;18.88;;;8.13;;
76761;SDS011;65705;51.032;13.790;2024-01-30T11:00:57;21.80;;;9.18;;
76761;SDS011;65705;51.032;13.790;2024-01-30T11:03:24;23.40;;;9.20;;
76761;SDS011;65705;51.032;13.790;2024-01-30T11:05:50;23.75;;;9.25;;
76761;SDS011;65705;51.032;13.790;2024-01-30T11:08:24;25.02;;;8.45;;
76761;SDS011;65705;51.032;13.790;2024-01-30T11:10:56;20.75;;;8.00;;
76761;SDS011;65705;51.032;13.790;2024-01-30T11:13:31;16.35;;;8.65;;
76761;SDS011;65705;51.032;13.790;2024-01-30T11:16:03;17.90;;;8.48;;
76761;SDS011;65705;51.032;13.790;2024-01-30T11:18:30;17.40;;;7.78;;
76761;SDS011;65705;51.032;13.790;2024-01-30T11:20:59;17.40;;;8.95;;
76761;SDS011;65705;51.032;13.790;2024-01-30T11:23:30;18.15;;;8.20;;
76761;SDS011;65705;51.032;13.790;2024-01-30T11:25:58;18.27;;;9.15;;
76761;SDS011;65705;51.032;13.790;2024-01-30T11:28:24;16.38;;;7.93;;
76761;SDS011;65705;51.032;13.790;2024-01-30T11:30:50;19.67;;;8.93;;
76761;SDS011;65705;51.032;13.790;2024-01-30T11:33:28;18.80;;;8.75;;
76761;SDS011;65705;51.032;13.790;2024-01-30T11:35:58;18.33;;;8.02;;
76761;SDS011;65705;51.032;13.790;2024-01-30T11:38:27;19.88;;;8.63;;
76761;SDS011;65705;51.032;13.790;2024-01-30T11:40:56;21.77;;;8.38;;
76761;SDS011;65705;51.032;13.790;2024-01-30T11:43:22;19.70;;;8.35;;
76761;SDS011;65705;51.032;13.790;2024-01-30T11:45:48;22.05;;;8.38;;
76761;SDS011;65705;51.032;13.790;2024-01-30T11:48:14;20.73;;;7.97;;
76761;SDS011;65705;51.032;13.790;2024-01-30T11:50:40;18.67;;;8.30;;
76761;SDS011;65705;51.032;13.790;2024-01-30T11:53:06;23.25;;;8.80;;
76761;SDS011;65705;51.032;13.790;2024-01-30T11:55:32;20.05;;;9.23;;
76761;SDS011;65705;51.032;13.790;2024-01-30T11:57:59;18.27;;;8.85;;
76761;SDS011;65705;51.032;13.790;2024-01-30T12:00:25;21.17;;;9.77;;
76761;SDS011;65705;51.032;13.790;2024-01-30T12:02:52;24.17;;;9.85;;
76761;SDS011;65705;51.032;13.790;2024-01-30T12:05:24;23.02;;;9.52;;
76761;SDS011;65705;51.032;13.790;2024-01-30T12:07:50;25.00;;;10.00;;
76761;SDS011;65705;51.032;13.790;2024-01-30T12:10:16;21.85;;;9.82;;
76761;SDS011;65705;51.032;13.790;2024-01-30T12:12:45;18.52;;;9.40;;
76761;SDS011;65705;51.032;13.790;2024-01-30T12:15:12;21.63;;;9.27;;
76761;SDS011;65705;51.032;13.790;2024-01-30T12:17:38;24.80;;;11.38;;
76761;SDS011;65705;51.032;13.790;2024-01-30T12:20:09;22.05;;;9.38;;
76761;SDS011;65705;51.032;13.790;2024-01-30T12:25:13;26.05;;;9.55;;
76761;SDS011;65705;51.032;13.790;2024-01-30T12:27:47;26.02;;;10.63;;
76761;SDS011;65705;51.032;13.790;2024-01-30T12:30:17;20.52;;;10.10;;
76761;SDS011;65705;51.032;13.790;2024-01-30T12:32:45;20.70;;;9.35;;
76761;SDS011;65705;51.032;13.790;2024-01-30T12:35:13;23.58;;;9.45;;
76761;SDS011;65705;51.032;13.790;2024-01-30T12:37:40;26.38;;;9.85;;
76761;SDS011;65705;51.032;13.790;2024-01-30T12:40:08;21.52;;;8.75;;
76761;SDS011;65705;51.032;13.790;2024-01-30T12:42:34;21.80;;;9.80;;
76761;SDS011;65705;51.032;13.790;2024-01-30T12:45:03;23.00;;;10.77;;
76761;SDS011;65705;51.032;13.790;2024-01-30T12:47:30;18.42;;;9.13;;
76761;SDS011;65705;51.032;13.790;2024-01-30T12:49:56;24.02;;;9.82;;
76761;SDS011;65705;51.032;13.790;2024-01-30T12:52:22;25.85;;;10.73;;
76761;SDS011;65705;51.032;13.790;2024-01-30T12:54:48;28.33;;;11.10;;
76761;SDS011;65705;51.032;13.790;2024-01-30T12:57:15;20.52;;;9.68;;
76761;SDS011;65705;51.032;13.790;2024-01-30T12:59:41;21.10;;;9.15;;
76761;SDS011;65705;51.032;13.790;2024-01-30T13:02:08;24.35;;;9.35;;
76761;SDS011;65705;51.032;13.790;2024-01-30T13:04:34;22.30;;;9.88;;
76761;SDS011;65705;51.032;13.790;2024-01-30T13:07:00;21.67;;;9.73;;
76761;SDS011;65705;51.032;13.790;2024-01-30T13:09:26;25.17;;;12.10;;
76761;SDS011;65705;51.032;13.790;2024-01-30T13:11:52;22.35;;;11.45;;
76761;SDS011;65705;51.032;13.790;2024-01-30T13:14:18;33.72;;;11.93;;
76761;SDS011;65705;51.032;13.790;2024-01-30T13:16:44;22.63;;;10.38;;
76761;SDS011;65705;51.032;13.790;2024-01-30T13:19:11;23.17;;;10.40;;
76761;SDS011;65705;51.032;13.790;2024-01-30T13:21:36;22.35;;;10.13;;
76761;SDS011;65705;51.032;13.790;2024-01-30T13:24:03;24.00;;;10.80;;
76761;SDS011;65705;51.032;13.790;2024-01-30T13:26:29;22.77;;;10.13;;
76761;SDS011;65705;51.032;13.790;2024-01-30T13:28:56;26.65;;;11.07;;
76761;SDS011;65705;51.032;13.790;2024-01-30T13:31:22;24.83;;;10.05;;
76761;SDS011;65705;51.032;13.790;2024-01-30T13:33:47;23.58;;;10.13;;
76761;SDS011;65705;51.032;13.790;2024-01-30T13:36:14;24.83;;;11.70;;
76761;SDS011;65705;51.032;13.790;2024-01-30T13:38:40;24.33;;;10.98;;
76761;SDS011;65705;51.032;13.790;2024-01-30T13:41:06;23.23;;;10.85;;
76761;SDS011;65705;51.032;13.790;2024-01-30T13:43:32;25.13;;;10.57;;
76761;SDS011;65705;51.032;13.790;2024-01-30T13:45:58;25.35;;;11.32;;
76761;SDS011;65705;51.032;13.790;2024-01-30T13:48:24;23.95;;;10.75;;
76761;SDS011;65705;51.032;13.790;2024-01-30T13:50:50;24.95;;;11.63;;
76761;SDS011;65705;51.032;13.790;2024-01-30T13:53:15;28.27;;;11.90;;
76761;SDS011;65705;51.032;13.790;2024-01-30T13:55:41;27.67;;;11.55;;
76761;SDS011;65705;51.032;13.790;2024-01-30T13:58:07;29.67;;;11.50;;
76761;SDS011;65705;51.032;13.790;2024-01-30T14:00:33;25.80;;;11.88;;
76761;SDS011;65705;51.032;13.790;2024-01-30T14:02:59;24.08;;;10.85;;
76761;SDS011;65705;51.032;13.790;2024-01-30T14:05:26;22.63;;;10.30;;
76761;SDS011;65705;51.032;13.790;2024-01-30T14:07:54;25.00;;;10.48;;
76761;SDS011;65705;51.032;13.790;2024-01-30T14:10:21;26.42;;;12.07;;
76761;SDS011;65705;51.032;13.790;2024-01-30T14:12:47;24.42;;;11.15;;